sensor_id;sensor_type;location;lat;lon;timestamp;P1;durP1;ratioP1;P2;durP2;ratioP2
10244;SDS011;5167;52.164;10.530;2022-12-24T00:01:51;6.47;;;3.63;;
10244;SDS011;5167;52.164;10.530;2022-12-24T00:04:16;4.87;;;3.70;;
10244;SDS011;5167;52.164;10.530;2022-12-24T00:06:41;6.50;;;3.90;;
10244;SDS011;5167;52.164;10.530;2022-12-24T00:09:07;5.47;;;3.93;;
10244;SDS011;5167;52.164;10.530;2022-12-24T00:11:33;5.30;;;3.90;;
10244;SDS011;5167;52.164;10.530;2022-12-24T00:13:59;6.10;;;4.07;;
10244;SDS011;5167;52.164;10.530;2022-12-24T00:16:25;6.70;;;3.90;;
10244;SDS011;5167;52.164;10.530;2022-12-24T00:18:51;5.43;;;3.90;;
10244;SDS011;5167;52.164;10.530;2022-12-24T00:21:16;4.97;;;3.80;;
10244;SDS011;5167;52.164;10.530;2022-12-24T00:23:42;6.23;;;3.87;;
10244;SDS011;5167;52.164;10.530;2022-12-24T00:26:07;4.57;;;3.50;;
10244;SDS011;5167;52.164;10.530;2022-12-24T00:28:33;8.50;;;4.23;;
10244;SDS011;5167;52.164;10.530;2022-12-24T00:30:58;3.73;;;3.40;;
10244;SDS011;5167;52.164;10.530;2022-12-24T00:33:24;5.43;;;3.87;;
10244;SDS011;5167;52.164;10.530;2022-12-24T00:35:50;5.67;;;3.97;;
10244;SDS011;5167;52.164;10.530;2022-12-24T00:38:16;3.50;;;3.20;;
10244;SDS011;5167;52.164;10.530;2022-12-24T00:40:42;5.00;;;3.50;;
10244;SDS011;5167;52.164;10.530;2022-12-24T00:43:07;4.93;;;3.70;;
10244;SDS011;5167;52.164;10.530;2022-12-24T00:45:33;7.47;;;3.60;;
10244;SDS011;5167;52.164;10.530;2022-12-24T00:47:58;4.37;;;3.50;;
10244;SDS011;5167;52.164;10.530;2022-12-24T00:50:24;3.90;;;3.17;;
10244;SDS011;5167;52.164;10.530;2022-12-24T00:52:49;5.27;;;3.80;;
10244;SDS011;5167;52.164;10.530;2022-12-24T00:55:15;5.13;;;3.63;;
10244;SDS011;5167;52.164;10.530;2022-12-24T00:57:40;3.40;;;3.10;;
10244;SDS011;5167;52.164;10.530;2022-12-24T01:00:06;4.00;;;3.33;;
10244;SDS011;5167;52.164;10.530;2022-12-24T01:02:33;4.63;;;3.60;;
10244;SDS011;5167;52.164;10.530;2022-12-24T01:04:58;4.77;;;3.23;;
10244;SDS011;5167;52.164;10.530;2022-12-24T01:07:40;3.80;;;3.30;;
10244;SDS011;5167;52.164;10.530;2022-12-24T01:10:08;5.97;;;3.50;;
10244;SDS011;5167;52.164;10.530;2022-12-24T01:12:35;4.40;;;3.40;;
10244;SDS011;5167;52.164;10.530;2022-12-24T01:15:03;5.57;;;3.20;;
10244;SDS011;5167;52.164;10.530;2022-12-24T01:17:32;4.67;;;3.50;;
10244;SDS011;5167;52.164;10.530;2022-12-24T01:19:59;4.03;;;3.50;;
10244;SDS011;5167;52.164;10.530;2022-12-24T01:22:30;5.37;;;3.63;;
10244;SDS011;5167;52.164;10.530;2022-12-24T01:24:56;5.23;;;3.80;;
10244;SDS011;5167;52.164;10.530;2022-12-24T01:27:29;4.57;;;3.67;;
10244;SDS011;5167;52.164;10.530;2022-12-24T01:29:59;4.07;;;3.60;;
10244;SDS011;5167;52.164;10.530;2022-12-24T01:32:32;5.13;;;3.40;;
10244;SDS011;5167;52.164;10.530;2022-12-24T01:34:58;4.47;;;3.60;;
10244;SDS011;5167;52.164;10.530;2022-12-24T01:37:26;5.40;;;3.97;;
10244;SDS011;5167;52.164;10.530;2022-12-24T01:39:54;5.13;;;3.87;;
10244;SDS011;5167;52.164;10.530;2022-12-24T01:42:46;6.57;;;4.47;;
10244;SDS011;5167;52.164;10.530;2022-12-24T01:51:14;4.60;;;3.50;;
10244;SDS011;5167;52.164;10.530;2022-12-24T01:53:57;4.93;;;3.60;;
10244;SDS011;5167;52.164;10.530;2022-12-24T01:56:34;4.67;;;4.17;;
10244;SDS011;5167;52.164;10.530;2022-12-24T01:59:05;5.67;;;4.53;;
10244;SDS011;5167;52.164;10.530;2022-12-24T02:01:36;8.13;;;3.97;;
10244;SDS011;5167;52.164;10.530;2022-12-24T02:04:41;5.57;;;3.90;;
10244;SDS011;5167;52.164;10.530;2022-12-24T02:07:08;6.23;;;4.20;;
10244;SDS011;5167;52.164;10.530;2022-12-24T02:09:34;5.50;;;3.73;;
10244;SDS011;5167;52.164;10.530;2022-12-24T02:12:03;6.17;;;3.97;;
10244;SDS011;5167;52.164;10.530;2022-12-24T02:14:37;5.27;;;4.00;;
10244;SDS011;5167;52.164;10.530;2022-12-24T02:17:17;5.20;;;3.90;;
10244;SDS011;5167;52.164;10.530;2022-12-24T02:28:35;6.03;;;3.73;;
10244;SDS011;5167;52.164;10.530;2022-12-24T02:31:46;5.00;;;3.67;;
10244;SDS011;5167;52.164;10.530;2022-12-24T02:39:51;6.03;;;4.40;;
10244;SDS011;5167;52.164;10.530;2022-12-24T02:42:24;7.03;;;4.40;;
10244;SDS011;5167;52.164;10.530;2022-12-24T02:44:59;8.57;;;4.90;;
10244;SDS011;5167;52.164;10.530;2022-12-24T02:47:33;6.87;;;4.67;;
10244;SDS011;5167;52.164;10.530;2022-12-24T02:50:01;6.83;;;4.77;;
10244;SDS011;5167;52.164;10.530;2022-12-24T02:55:06;8.90;;;5.00;;
10244;SDS011;5167;52.164;10.530;2022-12-24T02:57:38;7.97;;;5.53;;
10244;SDS011;5167;52.164;10.530;2022-12-24T03:00:41;7.27;;;4.97;;
10244;SDS011;5167;52.164;10.530;2022-12-24T03:03:59;8.93;;;4.83;;
10244;SDS011;5167;52.164;10.530;2022-12-24T03:06:55;6.70;;;4.37;;
10244;SDS011;5167;52.164;10.530;2022-12-24T03:09:31;6.07;;;3.77;;
10244;SDS011;5167;52.164;10.530;2022-12-24T03:12:15;6.83;;;3.50;;
10244;SDS011;5167;52.164;10.530;2022-12-24T03:14:47;9.17;;;3.37;;
10244;SDS011;5167;52.164;10.530;2022-12-24T03:17:16;6.83;;;3.83;;
10244;SDS011;5167;52.164;10.530;2022-12-24T03:19:46;11.30;;;3.27;;
10244;SDS011;5167;52.164;10.530;2022-12-24T03:22:12;5.50;;;3.47;;
10244;SDS011;5167;52.164;10.530;2022-12-24T03:24:39;9.13;;;3.00;;
10244;SDS011;5167;52.164;10.530;2022-12-24T03:27:08;4.93;;;3.50;;
10244;SDS011;5167;52.164;10.530;2022-12-24T03:29:35;12.67;;;3.27;;
10244;SDS011;5167;52.164;10.530;2022-12-24T03:32:08;10.20;;;3.33;;
10244;SDS011;5167;52.164;10.530;2022-12-24T03:34:40;5.23;;;3.10;;
10244;SDS011;5167;52.164;10.530;2022-12-24T03:37:06;11.37;;;3.93;;
10244;SDS011;5167;52.164;10.530;2022-12-24T03:39:34;7.17;;;3.97;;
10244;SDS011;5167;52.164;10.530;2022-12-24T03:42:08;7.30;;;2.73;;
10244;SDS011;5167;52.164;10.530;2022-12-24T03:44:34;7.33;;;2.70;;
10244;SDS011;5167;52.164;10.530;2022-12-24T03:46:59;6.10;;;2.40;;
10244;SDS011;5167;52.164;10.530;2022-12-24T03:49:25;4.17;;;2.07;;
10244;SDS011;5167;52.164;10.530;2022-12-24T03:51:56;5.87;;;2.10;;
10244;SDS011;5167;52.164;10.530;2022-12-24T03:54:24;5.13;;;2.60;;
10244;SDS011;5167;52.164;10.530;2022-12-24T03:56:52;8.27;;;2.30;;
10244;SDS011;5167;52.164;10.530;2022-12-24T03:59:21;3.70;;;2.42;;
10244;SDS011;5167;52.164;10.530;2022-12-24T04:01:54;6.53;;;2.80;;
10244;SDS011;5167;52.164;10.530;2022-12-24T04:04:22;12.17;;;2.70;;
10244;SDS011;5167;52.164;10.530;2022-12-24T04:06:50;3.83;;;2.55;;
10244;SDS011;5167;52.164;10.530;2022-12-24T04:09:19;5.33;;;2.70;;
10244;SDS011;5167;52.164;10.530;2022-12-24T04:11:44;7.30;;;2.58;;
10244;SDS011;5167;52.164;10.530;2022-12-24T04:14:15;8.63;;;3.00;;
10244;SDS011;5167;52.164;10.530;2022-12-24T04:16:46;8.60;;;4.03;;
10244;SDS011;5167;52.164;10.530;2022-12-24T04:19:12;8.45;;;3.70;;
10244;SDS011;5167;52.164;10.530;2022-12-24T04:21:38;8.37;;;2.83;;
10244;SDS011;5167;52.164;10.530;2022-12-24T04:24:03;13.13;;;4.07;;
10244;SDS011;5167;52.164;10.530;2022-12-24T04:26:29;7.63;;;2.67;;
10244;SDS011;5167;52.164;10.530;2022-12-24T04:29:03;10.93;;;3.10;;
10244;SDS011;5167;52.164;10.530;2022-12-24T04:31:32;12.88;;;3.45;;
10244;SDS011;5167;52.164;10.530;2022-12-24T04:34:01;13.27;;;2.77;;
10244;SDS011;5167;52.164;10.530;2022-12-24T04:36:27;11.27;;;3.20;;
10244;SDS011;5167;52.164;10.530;2022-12-24T04:38:57;10.87;;;2.93;;
10244;SDS011;5167;52.164;10.530;2022-12-24T04:41:23;9.77;;;3.00;;
10244;SDS011;5167;52.164;10.530;2022-12-24T04:43:49;26.98;;;3.80;;
10244;SDS011;5167;52.164;10.530;2022-12-24T04:46:23;15.63;;;3.20;;
10244;SDS011;5167;52.164;10.530;2022-12-24T04:48:57;13.55;;;3.45;;
10244;SDS011;5167;52.164;10.530;2022-12-24T04:51:24;5.80;;;2.90;;
10244;SDS011;5167;52.164;10.530;2022-12-24T04:53:53;9.57;;;2.07;;
10244;SDS011;5167;52.164;10.530;2022-12-24T04:56:25;14.43;;;3.33;;
10244;SDS011;5167;52.164;10.530;2022-12-24T04:58:52;10.07;;;2.80;;
10244;SDS011;5167;52.164;10.530;2022-12-24T05:01:20;5.97;;;2.75;;
10244;SDS011;5167;52.164;10.530;2022-12-24T05:03:50;10.98;;;3.72;;
10244;SDS011;5167;52.164;10.530;2022-12-24T05:06:22;12.43;;;2.90;;
10244;SDS011;5167;52.164;10.530;2022-12-24T05:08:52;10.98;;;2.97;;
10244;SDS011;5167;52.164;10.530;2022-12-24T05:11:21;14.52;;;3.53;;
10244;SDS011;5167;52.164;10.530;2022-12-24T05:13:50;8.93;;;2.97;;
10244;SDS011;5167;52.164;10.530;2022-12-24T05:16:19;10.50;;;3.15;;
10244;SDS011;5167;52.164;10.530;2022-12-24T05:18:48;9.10;;;3.15;;
10244;SDS011;5167;52.164;10.530;2022-12-24T05:21:16;13.27;;;3.00;;
10244;SDS011;5167;52.164;10.530;2022-12-24T05:23:51;12.05;;;3.47;;
10244;SDS011;5167;52.164;10.530;2022-12-24T05:26:48;8.77;;;3.03;;
10244;SDS011;5167;52.164;10.530;2022-12-24T05:29:23;6.63;;;2.58;;
10244;SDS011;5167;52.164;10.530;2022-12-24T05:31:51;4.47;;;2.20;;
10244;SDS011;5167;52.164;10.530;2022-12-24T05:34:17;7.30;;;2.55;;
10244;SDS011;5167;52.164;10.530;2022-12-24T05:36:45;11.77;;;2.78;;
10244;SDS011;5167;52.164;10.530;2022-12-24T05:39:13;7.03;;;2.65;;
10244;SDS011;5167;52.164;10.530;2022-12-24T05:41:43;12.20;;;3.17;;
10244;SDS011;5167;52.164;10.530;2022-12-24T05:44:12;9.18;;;3.00;;
10244;SDS011;5167;52.164;10.530;2022-12-24T05:46:42;10.95;;;3.58;;
10244;SDS011;5167;52.164;10.530;2022-12-24T05:49:11;10.15;;;2.55;;
10244;SDS011;5167;52.164;10.530;2022-12-24T05:51:40;8.35;;;2.88;;
10244;SDS011;5167;52.164;10.530;2022-12-24T05:54:06;7.20;;;2.50;;
10244;SDS011;5167;52.164;10.530;2022-12-24T05:56:36;12.00;;;3.95;;
10244;SDS011;5167;52.164;10.530;2022-12-24T05:59:05;7.78;;;2.72;;
10244;SDS011;5167;52.164;10.530;2022-12-24T06:01:33;10.68;;;2.35;;
10244;SDS011;5167;52.164;10.530;2022-12-24T06:03:59;15.93;;;2.90;;
10244;SDS011;5167;52.164;10.530;2022-12-24T06:06:27;10.25;;;2.58;;
10244;SDS011;5167;52.164;10.530;2022-12-24T06:08:57;6.95;;;2.30;;
10244;SDS011;5167;52.164;10.530;2022-12-24T06:11:24;11.93;;;2.65;;
10244;SDS011;5167;52.164;10.530;2022-12-24T06:13:51;7.85;;;2.65;;
10244;SDS011;5167;52.164;10.530;2022-12-24T06:16:17;13.95;;;3.38;;
10244;SDS011;5167;52.164;10.530;2022-12-24T06:18:44;10.35;;;3.47;;
10244;SDS011;5167;52.164;10.530;2022-12-24T06:21:10;15.20;;;3.65;;
10244;SDS011;5167;52.164;10.530;2022-12-24T06:23:36;11.48;;;3.17;;
10244;SDS011;5167;52.164;10.530;2022-12-24T06:26:03;12.93;;;4.00;;
10244;SDS011;5167;52.164;10.530;2022-12-24T06:28:31;15.32;;;3.50;;
10244;SDS011;5167;52.164;10.530;2022-12-24T06:31:00;12.98;;;3.08;;
10244;SDS011;5167;52.164;10.530;2022-12-24T06:33:27;8.20;;;2.78;;
10244;SDS011;5167;52.164;10.530;2022-12-24T06:35:53;13.97;;;3.07;;
10244;SDS011;5167;52.164;10.530;2022-12-24T06:38:18;14.27;;;2.67;;
10244;SDS011;5167;52.164;10.530;2022-12-24T06:40:44;21.98;;;3.65;;
10244;SDS011;5167;52.164;10.530;2022-12-24T06:43:10;12.02;;;3.53;;
10244;SDS011;5167;52.164;10.530;2022-12-24T06:45:37;11.38;;;3.08;;
10244;SDS011;5167;52.164;10.530;2022-12-24T06:48:02;11.18;;;3.50;;
10244;SDS011;5167;52.164;10.530;2022-12-24T06:50:28;15.07;;;4.40;;
10244;SDS011;5167;52.164;10.530;2022-12-24T06:52:54;13.90;;;3.53;;
10244;SDS011;5167;52.164;10.530;2022-12-24T06:55:19;11.98;;;3.97;;
10244;SDS011;5167;52.164;10.530;2022-12-24T06:57:45;12.68;;;4.03;;
10244;SDS011;5167;52.164;10.530;2022-12-24T07:00:11;10.52;;;4.20;;
10244;SDS011;5167;52.164;10.530;2022-12-24T07:02:40;15.02;;;3.80;;
10244;SDS011;5167;52.164;10.530;2022-12-24T07:05:06;8.90;;;4.03;;
10244;SDS011;5167;52.164;10.530;2022-12-24T07:07:34;13.00;;;3.95;;
10244;SDS011;5167;52.164;10.530;2022-12-24T07:10:01;14.68;;;4.57;;
10244;SDS011;5167;52.164;10.530;2022-12-24T07:12:27;10.98;;;3.97;;
10244;SDS011;5167;52.164;10.530;2022-12-24T07:14:53;20.33;;;4.53;;
10244;SDS011;5167;52.164;10.530;2022-12-24T07:17:18;11.20;;;3.93;;
10244;SDS011;5167;52.164;10.530;2022-12-24T07:19:43;13.68;;;4.25;;
10244;SDS011;5167;52.164;10.530;2022-12-24T07:22:09;21.33;;;4.88;;
10244;SDS011;5167;52.164;10.530;2022-12-24T07:24:34;20.50;;;5.32;;
10244;SDS011;5167;52.164;10.530;2022-12-24T07:27:00;13.32;;;3.90;;
10244;SDS011;5167;52.164;10.530;2022-12-24T07:29:25;17.98;;;4.50;;
10244;SDS011;5167;52.164;10.530;2022-12-24T07:31:51;20.92;;;5.05;;
10244;SDS011;5167;52.164;10.530;2022-12-24T07:34:16;19.67;;;4.93;;
10244;SDS011;5167;52.164;10.530;2022-12-24T07:36:42;19.35;;;4.65;;
10244;SDS011;5167;52.164;10.530;2022-12-24T07:39:07;20.85;;;5.30;;
10244;SDS011;5167;52.164;10.530;2022-12-24T07:41:33;16.48;;;5.38;;
10244;SDS011;5167;52.164;10.530;2022-12-24T07:43:58;12.45;;;3.95;;
10244;SDS011;5167;52.164;10.530;2022-12-24T07:46:23;7.47;;;4.85;;
10244;SDS011;5167;52.164;10.530;2022-12-24T07:48:49;20.85;;;5.15;;
10244;SDS011;5167;52.164;10.530;2022-12-24T07:51:14;21.42;;;4.95;;
10244;SDS011;5167;52.164;10.530;2022-12-24T07:53:40;14.68;;;4.45;;
10244;SDS011;5167;52.164;10.530;2022-12-24T07:56:12;21.80;;;4.88;;
10244;SDS011;5167;52.164;10.530;2022-12-24T07:58:40;20.88;;;5.20;;
10244;SDS011;5167;52.164;10.530;2022-12-24T08:01:06;13.57;;;4.22;;
10244;SDS011;5167;52.164;10.530;2022-12-24T08:03:32;23.45;;;4.95;;
10244;SDS011;5167;52.164;10.530;2022-12-24T08:05:58;18.67;;;4.87;;
10244;SDS011;5167;52.164;10.530;2022-12-24T08:08:24;19.40;;;5.20;;
10244;SDS011;5167;52.164;10.530;2022-12-24T08:10:49;22.23;;;5.85;;
10244;SDS011;5167;52.164;10.530;2022-12-24T08:13:15;19.27;;;4.75;;
10244;SDS011;5167;52.164;10.530;2022-12-24T08:15:41;30.02;;;5.45;;
10244;SDS011;5167;52.164;10.530;2022-12-24T08:18:08;14.73;;;4.43;;
10244;SDS011;5167;52.164;10.530;2022-12-24T08:20:36;28.58;;;5.30;;
10244;SDS011;5167;52.164;10.530;2022-12-24T08:23:02;15.73;;;4.45;;
10244;SDS011;5167;52.164;10.530;2022-12-24T08:25:28;19.52;;;4.65;;
10244;SDS011;5167;52.164;10.530;2022-12-24T08:27:53;17.90;;;4.63;;
10244;SDS011;5167;52.164;10.530;2022-12-24T08:30:19;16.73;;;4.60;;
10244;SDS011;5167;52.164;10.530;2022-12-24T08:32:44;18.50;;;5.07;;
10244;SDS011;5167;52.164;10.530;2022-12-24T08:35:10;22.80;;;5.28;;
10244;SDS011;5167;52.164;10.530;2022-12-24T08:37:35;19.75;;;4.32;;
10244;SDS011;5167;52.164;10.530;2022-12-24T08:40:01;23.97;;;4.17;;
10244;SDS011;5167;52.164;10.530;2022-12-24T08:42:27;11.93;;;4.35;;
10244;SDS011;5167;52.164;10.530;2022-12-24T08:44:53;17.33;;;5.18;;
10244;SDS011;5167;52.164;10.530;2022-12-24T08:47:18;16.63;;;4.90;;
10244;SDS011;5167;52.164;10.530;2022-12-24T08:49:43;22.45;;;4.00;;
10244;SDS011;5167;52.164;10.530;2022-12-24T08:52:09;14.27;;;4.53;;
10244;SDS011;5167;52.164;10.530;2022-12-24T08:54:34;16.60;;;4.00;;
10244;SDS011;5167;52.164;10.530;2022-12-24T08:57:00;11.23;;;3.90;;
10244;SDS011;5167;52.164;10.530;2022-12-24T08:59:25;14.70;;;4.57;;
10244;SDS011;5167;52.164;10.530;2022-12-24T09:01:51;20.00;;;4.30;;
10244;SDS011;5167;52.164;10.530;2022-12-24T09:04:16;24.00;;;4.38;;
10244;SDS011;5167;52.164;10.530;2022-12-24T09:06:42;13.77;;;4.70;;
10244;SDS011;5167;52.164;10.530;2022-12-24T09:09:07;18.77;;;4.72;;
10244;SDS011;5167;52.164;10.530;2022-12-24T09:11:33;22.90;;;5.07;;
10244;SDS011;5167;52.164;10.530;2022-12-24T09:13:59;15.27;;;5.35;;
10244;SDS011;5167;52.164;10.530;2022-12-24T09:16:25;13.02;;;4.25;;
10244;SDS011;5167;52.164;10.530;2022-12-24T09:18:50;16.65;;;3.65;;
10244;SDS011;5167;52.164;10.530;2022-12-24T09:21:16;13.15;;;4.03;;
10244;SDS011;5167;52.164;10.530;2022-12-24T09:23:43;17.70;;;4.55;;
10244;SDS011;5167;52.164;10.530;2022-12-24T09:26:13;15.75;;;4.93;;
10244;SDS011;5167;52.164;10.530;2022-12-24T09:28:46;20.88;;;5.97;;
10244;SDS011;5167;52.164;10.530;2022-12-24T09:31:12;22.50;;;6.97;;
10244;SDS011;5167;52.164;10.530;2022-12-24T09:33:39;16.25;;;4.80;;
10244;SDS011;5167;52.164;10.530;2022-12-24T09:36:06;24.52;;;7.53;;
10244;SDS011;5167;52.164;10.530;2022-12-24T09:38:32;23.80;;;6.47;;
10244;SDS011;5167;52.164;10.530;2022-12-24T09:40:58;21.15;;;5.40;;
10244;SDS011;5167;52.164;10.530;2022-12-24T09:43:26;19.33;;;6.35;;
10244;SDS011;5167;52.164;10.530;2022-12-24T09:48:57;11.05;;;5.35;;
10244;SDS011;5167;52.164;10.530;2022-12-24T09:51:32;13.52;;;4.70;;
10244;SDS011;5167;52.164;10.530;2022-12-24T09:54:14;11.90;;;4.75;;
10244;SDS011;5167;52.164;10.530;2022-12-24T09:56:47;22.98;;;6.07;;
10244;SDS011;5167;52.164;10.530;2022-12-24T09:59:13;20.05;;;5.70;;
10244;SDS011;5167;52.164;10.530;2022-12-24T10:01:41;22.08;;;4.90;;
10244;SDS011;5167;52.164;10.530;2022-12-24T10:04:14;20.67;;;4.82;;
10244;SDS011;5167;52.164;10.530;2022-12-24T10:09:50;22.85;;;6.50;;
10244;SDS011;5167;52.164;10.530;2022-12-24T10:12:37;24.55;;;5.72;;
10244;SDS011;5167;52.164;10.530;2022-12-24T10:15:33;18.95;;;5.13;;
10244;SDS011;5167;52.164;10.530;2022-12-24T10:18:07;13.07;;;5.68;;
10244;SDS011;5167;52.164;10.530;2022-12-24T10:26:17;21.20;;;6.15;;
10244;SDS011;5167;52.164;10.530;2022-12-24T10:28:52;17.13;;;5.35;;
10244;SDS011;5167;52.164;10.530;2022-12-24T10:31:22;13.13;;;5.75;;
10244;SDS011;5167;52.164;10.530;2022-12-24T10:34:09;32.00;;;6.60;;
10244;SDS011;5167;52.164;10.530;2022-12-24T10:36:38;12.32;;;5.47;;
10244;SDS011;5167;52.164;10.530;2022-12-24T10:39:05;24.90;;;5.50;;
10244;SDS011;5167;52.164;10.530;2022-12-24T10:41:38;14.20;;;5.22;;
10244;SDS011;5167;52.164;10.530;2022-12-24T10:44:04;16.07;;;5.70;;
10244;SDS011;5167;52.164;10.530;2022-12-24T10:46:36;18.75;;;5.20;;
10244;SDS011;5167;52.164;10.530;2022-12-24T10:49:07;20.08;;;5.80;;
10244;SDS011;5167;52.164;10.530;2022-12-24T10:54:25;16.42;;;6.40;;
10244;SDS011;5167;52.164;10.530;2022-12-24T10:56:56;10.23;;;5.70;;
10244;SDS011;5167;52.164;10.530;2022-12-24T11:01:51;19.95;;;5.93;;
10244;SDS011;5167;52.164;10.530;2022-12-24T11:04:19;17.67;;;5.10;;
10244;SDS011;5167;52.164;10.530;2022-12-24T11:06:57;15.00;;;5.22;;
10244;SDS011;5167;52.164;10.530;2022-12-24T11:09:29;21.25;;;5.28;;
10244;SDS011;5167;52.164;10.530;2022-12-24T11:11:59;18.35;;;5.63;;
10244;SDS011;5167;52.164;10.530;2022-12-24T11:14:30;15.90;;;4.90;;
10244;SDS011;5167;52.164;10.530;2022-12-24T11:16:58;16.20;;;4.90;;
10244;SDS011;5167;52.164;10.530;2022-12-24T11:19:46;19.00;;;5.28;;
10244;SDS011;5167;52.164;10.530;2022-12-24T11:22:20;10.43;;;4.72;;
10244;SDS011;5167;52.164;10.530;2022-12-24T11:27:46;15.40;;;4.93;;
10244;SDS011;5167;52.164;10.530;2022-12-24T11:32:42;16.42;;;5.82;;
10244;SDS011;5167;52.164;10.530;2022-12-24T11:35:14;12.15;;;5.85;;
10244;SDS011;5167;52.164;10.530;2022-12-24T11:37:40;14.02;;;4.88;;
10244;SDS011;5167;52.164;10.530;2022-12-24T11:40:16;10.40;;;4.82;;
10244;SDS011;5167;52.164;10.530;2022-12-24T11:42:47;12.13;;;4.93;;
10244;SDS011;5167;52.164;10.530;2022-12-24T11:45:20;13.13;;;6.28;;
10244;SDS011;5167;52.164;10.530;2022-12-24T11:47:48;7.82;;;4.05;;
10244;SDS011;5167;52.164;10.530;2022-12-24T11:50:33;8.88;;;3.85;;
10244;SDS011;5167;52.164;10.530;2022-12-24T11:55:44;5.57;;;3.90;;
10244;SDS011;5167;52.164;10.530;2022-12-24T12:01:11;8.70;;;5.05;;
10244;SDS011;5167;52.164;10.530;2022-12-24T12:04:44;17.33;;;7.82;;
10244;SDS011;5167;52.164;10.530;2022-12-24T12:09:28;7.87;;;3.70;;
10244;SDS011;5167;52.164;10.530;2022-12-24T12:11:58;5.95;;;4.47;;
10244;SDS011;5167;52.164;10.530;2022-12-24T12:14:34;7.50;;;3.00;;
10244;SDS011;5167;52.164;10.530;2022-12-24T12:17:35;6.35;;;3.55;;
10244;SDS011;5167;52.164;10.530;2022-12-24T12:20:29;4.38;;;2.90;;
10244;SDS011;5167;52.164;10.530;2022-12-24T12:23:12;4.25;;;2.58;;
10244;SDS011;5167;52.164;10.530;2022-12-24T12:30:53;5.20;;;2.45;;
10244;SDS011;5167;52.164;10.530;2022-12-24T12:33:34;5.40;;;2.45;;
10244;SDS011;5167;52.164;10.530;2022-12-24T12:36:05;6.38;;;2.55;;
10244;SDS011;5167;52.164;10.530;2022-12-24T12:38:33;4.90;;;2.22;;
10244;SDS011;5167;52.164;10.530;2022-12-24T12:52:12;4.63;;;2.50;;
10244;SDS011;5167;52.164;10.530;2022-12-24T12:57:15;4.22;;;2.40;;
10244;SDS011;5167;52.164;10.530;2022-12-24T12:59:44;4.28;;;2.05;;
10244;SDS011;5167;52.164;10.530;2022-12-24T13:05:24;2.67;;;1.40;;
10244;SDS011;5167;52.164;10.530;2022-12-24T13:13:51;6.13;;;1.43;;
10244;SDS011;5167;52.164;10.530;2022-12-24T13:19:23;4.10;;;1.60;;
10244;SDS011;5167;52.164;10.530;2022-12-24T13:22:00;4.43;;;1.83;;
10244;SDS011;5167;52.164;10.530;2022-12-24T13:24:26;2.85;;;1.83;;
10244;SDS011;5167;52.164;10.530;2022-12-24T13:29:42;8.50;;;2.00;;
10244;SDS011;5167;52.164;10.530;2022-12-24T13:34:47;8.40;;;2.47;;
10244;SDS011;5167;52.164;10.530;2022-12-24T13:37:38;3.27;;;2.07;;
10244;SDS011;5167;52.164;10.530;2022-12-24T13:50:42;13.43;;;5.32;;
10244;SDS011;5167;52.164;10.530;2022-12-24T13:58:39;6.93;;;3.90;;
10244;SDS011;5167;52.164;10.530;2022-12-24T14:01:08;5.93;;;3.65;;
10244;SDS011;5167;52.164;10.530;2022-12-24T14:03:46;8.20;;;4.30;;
10244;SDS011;5167;52.164;10.530;2022-12-24T14:06:28;11.27;;;3.87;;
10244;SDS011;5167;52.164;10.530;2022-12-24T14:09:04;4.77;;;3.70;;
10244;SDS011;5167;52.164;10.530;2022-12-24T14:14:29;6.10;;;3.00;;
10244;SDS011;5167;52.164;10.530;2022-12-24T14:17:01;6.33;;;3.50;;
10244;SDS011;5167;52.164;10.530;2022-12-24T14:19:39;11.57;;;4.65;;
10244;SDS011;5167;52.164;10.530;2022-12-24T14:25:08;13.23;;;6.57;;
10244;SDS011;5167;52.164;10.530;2022-12-24T14:30:15;10.20;;;4.43;;
10244;SDS011;5167;52.164;10.530;2022-12-24T14:32:44;14.57;;;4.80;;
10244;SDS011;5167;52.164;10.530;2022-12-24T14:35:30;11.82;;;5.35;;
10244;SDS011;5167;52.164;10.530;2022-12-24T14:38:04;15.27;;;5.40;;
10244;SDS011;5167;52.164;10.530;2022-12-24T14:40:37;19.52;;;5.03;;
10244;SDS011;5167;52.164;10.530;2022-12-24T14:43:21;12.70;;;5.35;;
10244;SDS011;5167;52.164;10.530;2022-12-24T14:46:06;17.67;;;6.25;;
10244;SDS011;5167;52.164;10.530;2022-12-24T14:51:23;14.85;;;6.38;;
10244;SDS011;5167;52.164;10.530;2022-12-24T14:54:19;15.43;;;5.53;;
10244;SDS011;5167;52.164;10.530;2022-12-24T15:07:31;16.63;;;6.13;;
10244;SDS011;5167;52.164;10.530;2022-12-24T15:10:00;9.23;;;4.00;;
10244;SDS011;5167;52.164;10.530;2022-12-24T15:12:27;5.70;;;2.63;;
10244;SDS011;5167;52.164;10.530;2022-12-24T15:14:54;7.20;;;2.40;;
10244;SDS011;5167;52.164;10.530;2022-12-24T15:17:19;3.83;;;2.10;;
10244;SDS011;5167;52.164;10.530;2022-12-24T15:19:46;3.40;;;1.87;;
10244;SDS011;5167;52.164;10.530;2022-12-24T15:22:21;4.27;;;1.93;;
10244;SDS011;5167;52.164;10.530;2022-12-24T15:24:50;5.03;;;2.40;;
10244;SDS011;5167;52.164;10.530;2022-12-24T15:27:16;7.03;;;2.50;;
10244;SDS011;5167;52.164;10.530;2022-12-24T15:29:44;1.73;;;1.53;;
10244;SDS011;5167;52.164;10.530;2022-12-24T15:32:15;4.30;;;1.53;;
10244;SDS011;5167;52.164;10.530;2022-12-24T15:34:44;3.50;;;1.63;;
10244;SDS011;5167;52.164;10.530;2022-12-24T15:39:54;2.33;;;2.13;;
10244;SDS011;5167;52.164;10.530;2022-12-24T15:42:33;6.13;;;2.00;;
10244;SDS011;5167;52.164;10.530;2022-12-24T15:45:01;5.57;;;2.37;;
10244;SDS011;5167;52.164;10.530;2022-12-24T15:47:47;5.17;;;2.43;;
10244;SDS011;5167;52.164;10.530;2022-12-24T15:50:24;5.77;;;2.00;;
10244;SDS011;5167;52.164;10.530;2022-12-24T15:52:55;3.77;;;2.00;;
10244;SDS011;5167;52.164;10.530;2022-12-24T15:58:23;3.37;;;2.10;;
10244;SDS011;5167;52.164;10.530;2022-12-24T16:03:38;7.30;;;2.07;;
10244;SDS011;5167;52.164;10.530;2022-12-24T16:06:05;4.90;;;2.00;;
10244;SDS011;5167;52.164;10.530;2022-12-24T16:08:33;4.33;;;2.30;;
10244;SDS011;5167;52.164;10.530;2022-12-24T16:13:49;4.77;;;2.40;;
10244;SDS011;5167;52.164;10.530;2022-12-24T16:19:17;3.93;;;2.80;;
10244;SDS011;5167;52.164;10.530;2022-12-24T16:21:49;7.77;;;2.80;;
10244;SDS011;5167;52.164;10.530;2022-12-24T16:24:23;3.30;;;2.90;;
10244;SDS011;5167;52.164;10.530;2022-12-24T16:26:52;5.07;;;2.70;;
10244;SDS011;5167;52.164;10.530;2022-12-24T16:29:18;4.00;;;2.73;;
10244;SDS011;5167;52.164;10.530;2022-12-24T16:31:44;6.67;;;2.67;;
10244;SDS011;5167;52.164;10.530;2022-12-24T16:34:14;7.03;;;2.93;;
10244;SDS011;5167;52.164;10.530;2022-12-24T16:36:41;14.60;;;5.47;;
10244;SDS011;5167;52.164;10.530;2022-12-24T16:39:24;10.37;;;4.40;;
10244;SDS011;5167;52.164;10.530;2022-12-24T16:41:55;5.30;;;4.20;;
10244;SDS011;5167;52.164;10.530;2022-12-24T16:44:40;10.87;;;4.40;;
10244;SDS011;5167;52.164;10.530;2022-12-24T16:47:19;13.23;;;5.20;;
10244;SDS011;5167;52.164;10.530;2022-12-24T16:49:47;8.27;;;4.73;;
10244;SDS011;5167;52.164;10.530;2022-12-24T16:52:16;8.77;;;5.40;;
10244;SDS011;5167;52.164;10.530;2022-12-24T16:54:44;8.37;;;5.73;;
10244;SDS011;5167;52.164;10.530;2022-12-24T16:57:10;12.17;;;5.97;;
10244;SDS011;5167;52.164;10.530;2022-12-24T16:59:35;12.37;;;7.17;;
10244;SDS011;5167;52.164;10.530;2022-12-24T17:02:02;15.47;;;6.63;;
10244;SDS011;5167;52.164;10.530;2022-12-24T17:04:30;18.23;;;7.00;;
10244;SDS011;5167;52.164;10.530;2022-12-24T17:06:56;14.97;;;7.43;;
10244;SDS011;5167;52.164;10.530;2022-12-24T17:09:22;18.03;;;7.80;;
10244;SDS011;5167;52.164;10.530;2022-12-24T17:11:47;20.60;;;7.10;;
10244;SDS011;5167;52.164;10.530;2022-12-24T17:14:13;15.27;;;7.00;;
10244;SDS011;5167;52.164;10.530;2022-12-24T17:16:38;24.27;;;8.30;;
10244;SDS011;5167;52.164;10.530;2022-12-24T17:19:04;20.00;;;8.17;;
10244;SDS011;5167;52.164;10.530;2022-12-24T17:21:29;19.67;;;7.90;;